WetterOnline ( https://www.wetteronline.de )

Wetter aktuell Lutherstadt Wittenberg

Aktuelles Wetter: Wittenberg (106m)

6-stündlich | Neueste Meldungen
Ortszeit Temperatur Wetter
Do, 02.02. 1:00 3.4° C wolkenlos
Mi, 01.02. 19:00 3.1° C Sprühregen
Mi, 01.02. 13:00 4.3° C leichter Regen
Mi, 01.02. 7:00 4.4° C bedeckt
Mi, 01.02. 1:00 5.1° C bewölkt
Di, 31.01. 19:00 4.6° C leichter Regen
Di, 31.01. 13:00 4.7° C Sprühregen
Di, 31.01. 7:00 2.7° C bedeckt
Ortszeit Temperatur Wetter
Do, 02.02. 3:00 4.6° C Sprühregen
Do, 02.02. 2:50 4.6° C Sprühregen
Do, 02.02. 2:40 4.5° C wolkig
Do, 02.02. 2:30 4.3° C fast wolkenlos
Do, 02.02. 2:20 4.3° C fast wolkenlos
Do, 02.02. 2:10 4.3° C wolkenlos
Do, 02.02. 2:00 4.0° C fast wolkenlos
Do, 02.02. 1:30 3.9° C wolkig
Do, 02.02. 1:00 3.4° C wolkenlos
Do, 02.02. 0:30 3.2° C leicht bewölkt
Do, 02.02. 0:00 2.9° C wolkig
Ortszeit Relative Feuchte Sichtweite
Do, 02.02. 1:00 77% 30 km
Mi, 01.02. 19:00 82% 17 km
Mi, 01.02. 13:00 87% 16 km
Mi, 01.02. 7:00 71% 28 km
Mi, 01.02. 1:00 69% 30 km
Di, 31.01. 19:00 85% 11 km
Di, 31.01. 13:00 75% 23 km
Di, 31.01. 7:00 88% 23 km
Ortszeit Relative Feuchte Sichtweite
Do, 02.02. 3:00 73% 26 km
Do, 02.02. 2:50 73% -
Do, 02.02. 2:40 73% -
Do, 02.02. 2:30 73% 30 km
Do, 02.02. 2:20 73% -
Do, 02.02. 2:10 73% -
Do, 02.02. 2:00 75% 30 km
Do, 02.02. 1:30 76% 35 km
Do, 02.02. 1:00 77% 30 km
Do, 02.02. 0:30 79% 35 km
Do, 02.02. 0:00 82% 40 km
Ortszeit Niederschlagsmenge Niederschlagsart
Do, 02.02. 1:00 0.1 l/m2 in 6 Std. Regen
Mi, 01.02. 19:00 3 l/m2 in 12 Std. Regen
Mi, 01.02. 13:00 0.9 l/m2 in 6 Std. Regen
Mi, 01.02. 7:00 1 l/m2 in 12 Std. -
Mi, 01.02. 1:00 1 l/m2 in 6 Std. Regen
Di, 31.01. 19:00 4 l/m2 in 12 Std. Regen
Di, 31.01. 13:00 0.1 l/m2 in 6 Std. Regen
Di, 31.01. 7:00 0.9 l/m2 in 12 Std. Regen
Ortszeit Niederschlagsmenge Niederschlagsart
Do, 02.02. 3:00 <0.05 l/m2 in 1 Std. Regen
Do, 02.02. 2:50 keine Meldung -
Do, 02.02. 2:40 keine Meldung -
Do, 02.02. 2:30 0.0 l/m2 in 30 Min -
Do, 02.02. 2:20 keine Meldung -
Do, 02.02. 2:10 keine Meldung -
Do, 02.02. 2:00 0.0 l/m2 in 1 Std. -
Do, 02.02. 1:30 0.0 l/m2 in 30 Min -
Do, 02.02. 1:00 0.0 l/m2 in 1 Std. Regen
Do, 02.02. 0:30 0.0 l/m2 in 30 Min -
Do, 02.02. 0:00 <0.05 l/m2 in 1 Std. Regen
Ortszeit Stärke Spitze Richtung
km/h Bft. km/h Grad Sektor
Do, 02.02. 1:00 20 4 50 270° W
Mi, 01.02. 19:00 22 4 65 280° W
Mi, 01.02. 13:00 18 3 58 270° W
Mi, 01.02. 7:00 17 3 48 250° W
Mi, 01.02. 1:00 25 4 54 280° W
Di, 31.01. 19:00 18 3 43 250° W
Di, 31.01. 13:00 18 3 47 240° SW
Di, 31.01. 7:00 14 3 43 270° W
Ortszeit Stärke Spitze Richtung
km/h Bft. km/h Grad Sektor
Do, 02.02. 3:00 28 4 52 280° W
Do, 02.02. 2:50 28 4 - 280° W
Do, 02.02. 2:40 26 4 - 270° W
Do, 02.02. 2:30 24 4 52 280° W
Do, 02.02. 2:20 24 4 - 280° W
Do, 02.02. 2:10 26 4 - 280° W
Do, 02.02. 2:00 26 4 46 270° W
Do, 02.02. 1:30 22 4 41 270° W
Do, 02.02. 1:00 20 4 39 270° W
Do, 02.02. 0:30 18 3 32 270° W
Do, 02.02. 0:00 18 3 40 270° W
Ortszeit Untergrenze Bedeckung Gattung
total tief tief mittel hoch
Do, 02.02. 1:00 - 0/8 0/8 - - -
Mi, 01.02. 19:00 780 m 8/8 7/8 - - -
Mi, 01.02. 13:00 690 m 7/8 7/8 - - -
Mi, 01.02. 7:00 750 m 8/8 8/8 - - -
Mi, 01.02. 1:00 1020 m 8/8 7/8 - - -
Di, 31.01. 19:00 570 m 8/8 8/8 - - -
Di, 31.01. 13:00 630 m 7/8 7/8 - - -
Di, 31.01. 7:00 450 m 8/8 8/8 - - -
Ortszeit Bedeckungsgrad in Achtel und Wolkenuntergrenze
Do, 02.02. 3:00 1(810m) 7(990m) 7(1260m)
Do, 02.02. 2:50 1(810m) 7(990m) 7(1260m)
Do, 02.02. 2:40 6
Do, 02.02. 2:30 1(780m)
Do, 02.02. 2:20 1(780m)
Do, 02.02. 2:10 keine Wolken
Do, 02.02. 2:00 1(1500m)
Do, 02.02. 1:30 5(1500m)
Do, 02.02. 1:00 keine Wolken
Do, 02.02. 0:30 1(1500m)
Do, 02.02. 0:00 5(4500m) 6(5100m)
Ortszeit Luftdruck NN (hPa) Tendenz (hPa in 3 Std.)
Do, 02.02. 1:00 1012 + 0,2
Mi, 01.02. 19:00 1011 + 1,3
Mi, 01.02. 13:00 1011 + 0,4
Mi, 01.02. 7:00 1012 - 1,4
Mi, 01.02. 1:00 1014 + 0,5
Di, 31.01. 19:00 1013 - 0,7
Di, 31.01. 13:00 1016 - 2,6
Di, 31.01. 7:00 1019 + 1,1
Ortszeit Luftdruck NN (hPa) Tendenz (hPa in 3 Std.)
Do, 02.02. 3:00 1012 0,0
Do, 02.02. 2:50 1012 keine Meldung
Do, 02.02. 2:40 1012 keine Meldung
Do, 02.02. 2:30 1012 - 0,2
Do, 02.02. 2:20 1012 keine Meldung
Do, 02.02. 2:10 1012 keine Meldung
Do, 02.02. 2:00 1011 - 0,4
Do, 02.02. 1:30 1012 - 0,2
Do, 02.02. 1:00 1012 + 0,2
Do, 02.02. 0:30 1012 + 0,3
Do, 02.02. 0:00 1012 + 0,4
Ortszeit Schneehöhe (cm)
Do, 02.02. 1:00 0
Mi, 01.02. 19:00 0
Mi, 01.02. 13:00 0
Mi, 01.02. 7:00 0
Mi, 01.02. 1:00 0
Di, 31.01. 19:00 0
Di, 31.01. 13:00 0
Di, 31.01. 7:00 0
Ortszeit Schneehöhe (cm)
Do, 02.02. 3:00 0
Do, 02.02. 2:50 0
Do, 02.02. 2:40 0
Do, 02.02. 2:30 0
Do, 02.02. 2:20 0
Do, 02.02. 2:10 0
Do, 02.02. 2:00 0
Do, 02.02. 1:30 0
Do, 02.02. 1:00 0
Do, 02.02. 0:30 0
Do, 02.02. 0:00 0
Link zu dieser Seite / Seite empfehlen

Das Wetter in ...